Time;durP1;ratioP1;P1;durP2;ratioP2;P2;SDS_P1;SDS_P2;PMS_P1;PMS_P2;Temp;Humidity;BMP_temperature;BMP_pressure;BME280_temperature;BME280_humidity;BME280_pressure;Samples;Min_cycle;Max_cycle;Signal;HPM_P1;HPM_P2
2024/01/28 00:01:49;;;;;;;;;;;;;;;5.29;78.30;102741.81;105925;1290;59685;-59
2024/01/28 00:04:35;;;;;;;;;;;;;;;5.28;77.94;102746.39;105934;1294;74494;-57
2024/01/28 00:07:21;;;;;;;;;;;;;;;5.31;78.15;102745.80;105915;1291;67115;-58
2024/01/28 00:10:07;;;;;;;;;;;;;;;5.30;78.64;102746.98;105885;1294;71166;-58
2024/01/28 00:12:53;;;;;;;;;;;;;;;5.26;78.95;102750.23;105872;1292;59169;-58
2024/01/28 00:15:39;;;;;;;;;;;;;;;5.22;78.50;102756.41;105868;1291;59280;-58
2024/01/28 00:18:25;;;;;;;;;;;;;;;5.23;78.94;102750.27;105915;1292;73331;-58
2024/01/28 00:21:11;;;;;;;;;;;;;;;5.21;78.51;102748.51;105956;1289;68026;-58
2024/01/28 00:23:59;;;;;;;;;;;;;;;5.24;78.80;102744.67;105927;1291;72001;-58
2024/01/28 00:26:45;;;;;;;;;;;;;;;5.23;78.49;102745.82;105929;1291;59271;-58
2024/01/28 00:29:31;;;;;;;;;;;;;;;5.22;78.57;102752.99;102068;1291;5003442;-57
2024/01/28 00:32:19;;;;;;;;;;;;;;;5.23;78.54;102756.07;105857;1292;73759;-58
2024/01/28 00:35:05;;;;;;;;;;;;;;;5.22;78.93;102754.70;105904;1291;67270;-58
2024/01/28 00:37:54;;;;;;;;;;;;;;;5.21;78.69;102751.20;105939;1290;70694;-58
2024/01/28 00:40:40;;;;;;;;;;;;;;;5.19;78.79;102750.48;105888;1291;59301;-58
2024/01/28 00:43:29;;;;;;;;;;;;;;;5.17;79.08;102753.81;105903;1289;59122;-58
2024/01/28 00:46:16;;;;;;;;;;;;;;;5.14;78.77;102755.08;105874;1291;74086;-58
2024/01/28 00:49:02;;;;;;;;;;;;;;;5.15;78.87;102754.58;105918;1291;68921;-57
2024/01/28 00:51:47;;;;;;;;;;;;;;;5.16;79.07;102754.63;105897;1292;72530;-58
2024/01/28 00:54:34;;;;;;;;;;;;;;;5.14;78.97;102752.68;105915;1291;59153;-58
2024/01/28 00:57:20;;;;;;;;;;;;;;;5.12;79.54;102750.86;105946;1291;58847;-58
2024/01/28 01:00:06;;;;;;;;;;;;;;;5.08;79.39;102747.11;105880;1291;73665;-58
2024/01/28 01:02:53;;;;;;;;;;;;;;;5.07;79.19;102751.85;98483;1290;10002143;-58
2024/01/28 01:05:41;;;;;;;;;;;;;;;5.07;78.91;102754.59;105867;1292;59073;-58
2024/01/28 01:08:27;;;;;;;;;;;;;;;5.08;79.18;102759.60;105880;1291;59366;-59
2024/01/28 01:11:13;;;;;;;;;;;;;;;5.07;79.26;102768.46;105919;1291;74407;-58
2024/01/28 01:13:59;;;;;;;;;;;;;;;5.07;79.20;102770.65;105913;1292;68894;-58
2024/01/28 01:16:45;;;;;;;;;;;;;;;5.07;79.64;102776.66;105878;1291;72512;-58
2024/01/28 01:19:30;;;;;;;;;;;;;;;5.02;79.84;102780.55;105889;1290;59126;-58
2024/01/28 01:22:21;;;;;;;;;;;;;;;4.98;79.47;102783.32;105644;1290;218098;-57
2024/01/28 01:25:07;;;;;;;;;;;;;;;4.98;79.64;102784.52;105982;1292;74427;-58
2024/01/28 01:27:53;;;;;;;;;;;;;;;4.98;80.01;102784.69;105965;1291;66165;-61
2024/01/28 01:30:39;;;;;;;;;;;;;;;4.95;79.65;102787.10;105881;1291;71201;-58
2024/01/28 01:33:25;;;;;;;;;;;;;;;4.97;79.51;102789.05;105932;1290;59116;-58
2024/01/28 01:36:11;;;;;;;;;;;;;;;4.99;79.71;102791.05;105933;1291;60375;-58
2024/01/28 01:38:57;;;;;;;;;;;;;;;5.01;79.72;102792.30;105939;1291;74418;-58
2024/01/28 01:41:43;;;;;;;;;;;;;;;5.00;79.53;102792.08;105898;1292;67266;-58
2024/01/28 01:44:29;;;;;;;;;;;;;;;5.01;79.59;102791.45;105894;1292;71313;-58
2024/01/28 01:47:15;;;;;;;;;;;;;;;5.02;79.55;102792.87;105920;1291;59146;-58
2024/01/28 01:50:02;;;;;;;;;;;;;;;5.04;79.59;102786.98;105967;1291;59703;-58
2024/01/28 01:52:48;;;;;;;;;;;;;;;5.03;79.57;102784.17;98377;1291;5003264;-58
2024/01/28 01:55:35;;;;;;;;;;;;;;;4.99;79.65;102783.02;105660;1291;311604;-58
2024/01/28 01:58:21;;;;;;;;;;;;;;;4.97;79.65;102779.48;105999;1291;71329;-58
2024/01/28 02:01:07;;;;;;;;;;;;;;;4.98;79.59;102776.27;105902;1290;59245;-58
2024/01/28 02:03:55;;;;;;;;;;;;;;;4.97;79.60;102767.36;105965;1291;58651;-58
2024/01/28 02:06:41;;;;;;;;;;;;;;;4.97;79.46;102771.11;105929;1291;73395;-58
2024/01/28 02:09:27;;;;;;;;;;;;;;;4.98;79.88;102771.50;105918;1294;67541;-58
2024/01/28 02:12:13;;;;;;;;;;;;;;;4.95;79.73;102773.94;105948;1291;72259;-58
2024/01/28 02:15:06;;;;;;;;;;;;;;;4.95;79.73;102774.44;105899;1289;59411;-58
2024/01/28 02:17:52;;;;;;;;;;;;;;;4.96;79.72;102781.67;105898;1294;59363;-58
2024/01/28 02:20:38;;;;;;;;;;;;;;;4.96;79.65;102786.45;105942;1291;73401;-58
2024/01/28 02:23:24;;;;;;;;;;;;;;;4.98;79.73;102790.98;105924;1291;66755;-58
2024/01/28 02:26:10;;;;;;;;;;;;;;;4.96;79.87;102796.38;105876;1291;71770;-58
2024/01/28 02:28:56;;;;;;;;;;;;;;;4.93;79.87;102793.52;105934;1289;59043;-58
2024/01/28 02:31:44;;;;;;;;;;;;;;;4.92;79.86;102791.73;105932;1291;58969;-58
2024/01/28 02:34:30;;;;;;;;;;;;;;;4.94;80.20;102786.02;105978;1290;74355;-58
2024/01/28 02:37:16;;;;;;;;;;;;;;;4.90;79.98;102790.14;105858;1291;67385;-59
2024/01/28 02:40:02;;;;;;;;;;;;;;;4.91;79.90;102793.06;105909;1291;72420;-58
2024/01/28 02:42:48;;;;;;;;;;;;;;;4.90;80.24;102789.46;105884;1291;59554;-58
2024/01/28 02:45:34;;;;;;;;;;;;;;;4.86;80.35;102787.91;105878;1291;59886;-58
2024/01/28 02:48:20;;;;;;;;;;;;;;;4.82;80.26;102788.10;105908;1292;74482;-57
2024/01/28 02:51:05;;;;;;;;;;;;;;;4.83;80.44;102793.59;105905;1291;69840;-58
2024/01/28 02:53:51;;;;;;;;;;;;;;;4.83;80.22;102800.06;105868;1291;72247;-57
2024/01/28 02:56:37;;;;;;;;;;;;;;;4.83;80.15;102803.52;105900;1291;60006;-58
2024/01/28 02:59:23;;;;;;;;;;;;;;;4.83;80.07;102801.96;105939;1291;59276;-60
2024/01/28 03:02:10;;;;;;;;;;;;;;;4.85;80.22;102805.64;105928;1291;72378;-58
2024/01/28 03:04:56;;;;;;;;;;;;;;;4.85;80.06;102813.15;106014;1290;68851;-58
2024/01/28 03:07:42;;;;;;;;;;;;;;;4.85;80.17;102816.77;105872;1291;72711;-58
2024/01/28 03:10:28;;;;;;;;;;;;;;;4.85;80.28;102821.17;105919;1291;59364;-58
2024/01/28 03:13:14;;;;;;;;;;;;;;;4.82;80.26;102820.23;105918;1291;59098;-58
2024/01/28 03:16:00;;;;;;;;;;;;;;;4.83;80.24;102821.45;105859;1292;74873;-58
2024/01/28 03:18:46;;;;;;;;;;;;;;;4.84;80.19;102820.13;105875;1291;68874;-58
2024/01/28 03:21:32;;;;;;;;;;;;;;;4.85;80.19;102816.06;105926;1291;73213;-58
2024/01/28 03:24:18;;;;;;;;;;;;;;;4.88;80.14;102818.58;105929;1291;59102;-58
2024/01/28 03:27:04;;;;;;;;;;;;;;;4.89;80.10;102817.61;105871;1291;59301;-58
2024/01/28 03:29:50;;;;;;;;;;;;;;;4.90;80.10;102818.48;105930;1291;74629;-58
2024/01/28 03:32:36;;;;;;;;;;;;;;;4.90;80.25;102819.17;105940;1291;67224;-58
2024/01/28 03:35:22;;;;;;;;;;;;;;;4.89;80.15;102819.47;105918;1291;72496;-58
2024/01/28 03:38:08;;;;;;;;;;;;;;;4.89;80.23;102819.52;106028;1289;59221;-58
2024/01/28 03:40:54;;;;;;;;;;;;;;;4.91;80.26;102819.08;105941;1290;59847;-58
2024/01/28 03:43:42;;;;;;;;;;;;;;;4.90;80.20;102820.04;105954;1289;73215;-58
2024/01/28 03:46:28;;;;;;;;;;;;;;;4.92;80.17;102819.95;105909;1291;67854;-59
2024/01/28 03:49:14;;;;;;;;;;;;;;;4.91;80.20;102820.93;105920;1291;71695;-58
2024/01/28 03:52:00;;;;;;;;;;;;;;;4.91;80.25;102819.05;105883;1291;59708;-56
2024/01/28 03:54:46;;;;;;;;;;;;;;;4.91;80.24;102826.05;105996;1291;60750;-58
2024/01/28 03:57:32;;;;;;;;;;;;;;;4.88;80.27;102829.72;105857;1292;73714;-58
2024/01/28 04:00:22;;;;;;;;;;;;;;;4.88;80.29;102828.33;105941;1291;68472;-58
2024/01/28 04:03:08;;;;;;;;;;;;;;;4.88;80.22;102833.32;105904;1289;71163;-58
2024/01/28 04:05:54;;;;;;;;;;;;;;;4.88;80.30;102831.77;105876;1292;59274;-58
2024/01/28 04:08:40;;;;;;;;;;;;;;;4.87;80.54;102833.42;106024;1293;59372;-58
2024/01/28 04:11:26;;;;;;;;;;;;;;;4.83;80.60;102828.96;105956;1291;72208;-58
2024/01/28 04:14:12;;;;;;;;;;;;;;;4.76;80.44;102834.81;105904;1292;67199;-58
2024/01/28 04:16:58;;;;;;;;;;;;;;;4.75;80.50;102835.64;105915;1294;71998;-58
2024/01/28 04:19:44;;;;;;;;;;;;;;;4.72;80.77;102836.33;105931;1292;59451;-58
2024/01/28 04:22:30;;;;;;;;;;;;;;;4.66;81.05;102839.68;105883;1292;59266;-58
2024/01/28 04:25:18;;;;;;;;;;;;;;;4.61;81.28;102840.50;105884;1290;73508;-58
2024/01/28 04:28:04;;;;;;;;;;;;;;;4.55;81.52;102846.55;105931;1292;68580;-58
2024/01/28 04:30:50;;;;;;;;;;;;;;;4.51;81.28;102844.67;105879;1290;72765;-58
2024/01/28 04:33:36;;;;;;;;;;;;;;;4.51;81.22;102840.54;105896;1291;59327;-58
2024/01/28 04:36:22;;;;;;;;;;;;;;;4.50;81.51;102845.49;105945;1290;59717;-58
2024/01/28 04:39:09;;;;;;;;;;;;;;;4.45;81.25;102850.55;105896;1291;75960;-57
2024/01/28 04:41:55;;;;;;;;;;;;;;;4.45;81.33;102857.73;105956;1290;68681;-58
2024/01/28 04:44:40;;;;;;;;;;;;;;;4.45;81.19;102856.50;105896;1291;72674;-58
2024/01/28 04:47:26;;;;;;;;;;;;;;;4.40;81.45;102859.21;105963;1291;58915;-58
2024/01/28 04:50:12;;;;;;;;;;;;;;;4.38;81.50;102858.91;105877;1292;59939;-58
2024/01/28 04:52:58;;;;;;;;;;;;;;;4.37;81.45;102862.99;105891;1291;74412;-58
2024/01/28 04:55:44;;;;;;;;;;;;;;;4.35;81.37;102865.81;105997;1290;67939;-58
2024/01/28 04:58:30;;;;;;;;;;;;;;;4.35;81.85;102870.08;105902;1291;71135;-58
2024/01/28 05:01:16;;;;;;;;;;;;;;;4.29;81.72;102869.27;105940;1291;58982;-58
2024/01/28 05:04:03;;;;;;;;;;;;;;;4.26;81.80;102873.24;105985;1290;58642;-58
2024/01/28 05:06:49;;;;;;;;;;;;;;;4.26;81.93;102875.29;105806;1291;74427;-58
2024/01/28 05:09:35;;;;;;;;;;;;;;;4.27;82.04;102870.06;105859;1291;67696;-59
2024/01/28 05:12:21;;;;;;;;;;;;;;;4.25;82.18;102867.71;105890;1291;72782;-58
2024/01/28 05:15:07;;;;;;;;;;;;;;;4.20;82.33;102866.29;105928;1291;59069;-58
2024/01/28 05:17:53;;;;;;;;;;;;;;;4.18;82.16;102867.41;105937;1292;59049;-58
2024/01/28 05:20:38;;;;;;;;;;;;;;;4.19;82.43;102872.05;105923;1291;74273;-57
2024/01/28 05:23:24;;;;;;;;;;;;;;;4.18;82.41;102873.73;105941;1293;68426;-58
2024/01/28 05:26:10;;;;;;;;;;;;;;;4.18;82.49;102875.78;105919;1291;72229;-58
2024/01/28 05:29:02;;;;;;;;;;;;;;;4.18;82.27;102875.10;105899;1291;59003;-58
2024/01/28 05:31:48;;;;;;;;;;;;;;;4.16;82.20;102873.13;105904;1291;60935;-58
2024/01/28 05:34:34;;;;;;;;;;;;;;;4.15;82.45;102879.76;105929;1290;74466;-57
2024/01/28 05:37:20;;;;;;;;;;;;;;;4.15;82.68;102883.67;105896;1291;67442;-58
2024/01/28 05:40:08;;;;;;;;;;;;;;;4.13;83.01;102882.75;105861;1291;72638;-57
2024/01/28 05:42:54;;;;;;;;;;;;;;;4.11;83.38;102884.89;105944;1291;59272;-58
2024/01/28 05:45:39;;;;;;;;;;;;;;;4.13;83.51;102882.04;105881;1290;59730;-57
2024/01/28 05:48:25;;;;;;;;;;;;;;;4.08;83.94;102887.46;105938;1291;74246;-57
2024/01/28 05:51:12;;;;;;;;;;;;;;;4.06;83.19;102888.40;83804;1292;10002445;-58
2024/01/28 05:53:57;;;;;;;;;;;;;;;4.07;83.49;102888.23;105837;1294;73190;-57
2024/01/28 05:56:43;;;;;;;;;;;;;;;4.06;83.41;102886.99;105728;1293;68447;-58
2024/01/28 05:59:29;;;;;;;;;;;;;;;4.05;82.99;102886.78;105751;1294;71329;-58
2024/01/28 06:02:15;;;;;;;;;;;;;;;4.07;82.86;102883.81;105745;1292;58944;-58
2024/01/28 06:05:01;;;;;;;;;;;;;;;4.07;82.71;102884.17;105674;1293;60061;-58
2024/01/28 06:07:47;;;;;;;;;;;;;;;4.08;82.69;102886.09;105716;1293;74144;-57
2024/01/28 06:10:33;;;;;;;;;;;;;;;4.09;82.72;102886.30;105706;1294;67524;-58
2024/01/28 06:13:19;;;;;;;;;;;;;;;4.10;82.58;102882.40;105775;1294;71232;-58
2024/01/28 06:16:06;;;;;;;;;;;;;;;4.11;82.63;102885.20;105749;1294;59229;-58
2024/01/28 06:18:52;;;;;;;;;;;;;;;4.11;82.57;102887.59;105707;1293;60641;-58
2024/01/28 06:21:38;;;;;;;;;;;;;;;4.10;82.99;102890.45;105814;1292;73339;-58
2024/01/28 06:24:23;;;;;;;;;;;;;;;4.10;82.56;102893.52;105773;1292;68460;-58
2024/01/28 06:27:09;;;;;;;;;;;;;;;4.13;82.57;102893.81;105784;1292;71346;-58
2024/01/28 06:29:55;;;;;;;;;;;;;;;4.17;82.60;102898.59;105767;1294;59480;-58
2024/01/28 06:32:42;;;;;;;;;;;;;;;4.17;82.46;102900.81;105746;1293;59151;-58
2024/01/28 06:35:28;;;;;;;;;;;;;;;4.17;82.69;102905.96;105546;1293;303701;-58
2024/01/28 06:38:14;;;;;;;;;;;;;;;4.16;82.62;102906.77;105797;1293;68664;-58
2024/01/28 06:41:00;;;;;;;;;;;;;;;4.16;82.69;102910.16;105706;1293;71532;-58
2024/01/28 06:43:46;;;;;;;;;;;;;;;4.16;82.32;102913.94;105747;1291;59231;-58
2024/01/28 06:46:32;;;;;;;;;;;;;;;4.17;82.57;102916.02;105766;1294;59417;-58
2024/01/28 06:49:17;;;;;;;;;;;;;;;4.21;82.49;102915.34;105757;1291;73385;-58
2024/01/28 06:52:04;;;;;;;;;;;;;;;4.23;82.55;102918.17;105803;1292;67450;-58
2024/01/28 06:54:50;;;;;;;;;;;;;;;4.24;82.32;102921.14;105809;1293;72138;-58
2024/01/28 06:57:36;;;;;;;;;;;;;;;4.22;82.12;102921.88;105882;1292;59656;-58
2024/01/28 07:00:22;;;;;;;;;;;;;;;4.17;82.36;102926.77;105813;1291;59474;-58
2024/01/28 07:03:09;;;;;;;;;;;;;;;4.15;82.50;102930.77;105800;1292;74335;-59
2024/01/28 07:05:55;;;;;;;;;;;;;;;4.18;82.80;102928.02;105827;1294;68603;-57
2024/01/28 07:08:41;;;;;;;;;;;;;;;4.19;82.48;102925.52;105844;1291;72195;-57
2024/01/28 07:11:27;;;;;;;;;;;;;;;4.21;82.84;102925.91;105795;1291;59267;-57
2024/01/28 07:14:13;;;;;;;;;;;;;;;4.21;82.73;102933.27;105806;1291;59152;-59
2024/01/28 07:16:59;;;;;;;;;;;;;;;4.21;82.76;102939.60;105834;1294;73017;-58
2024/01/28 07:19:45;;;;;;;;;;;;;;;4.22;82.69;102942.36;105823;1291;69075;-56
2024/01/28 07:22:31;;;;;;;;;;;;;;;4.23;82.80;102950.77;105813;1291;71278;-58
2024/01/28 07:25:17;;;;;;;;;;;;;;;4.22;82.74;102953.83;105822;1291;59462;-58
2024/01/28 07:28:03;;;;;;;;;;;;;;;4.22;82.79;102959.80;105856;1295;59223;-58
2024/01/28 07:30:49;;;;;;;;;;;;;;;4.22;82.70;102965.59;105829;1291;74282;-58
2024/01/28 07:33:35;;;;;;;;;;;;;;;4.25;82.89;102967.77;105856;1291;67416;-58
2024/01/28 07:36:21;;;;;;;;;;;;;;;4.27;82.95;102970.42;105816;1292;70396;-58
2024/01/28 07:39:07;;;;;;;;;;;;;;;4.26;83.29;102969.56;105841;1291;59121;-58
2024/01/28 07:41:53;;;;;;;;;;;;;;;4.31;82.94;102966.17;105802;1291;59233;-58
2024/01/28 07:44:39;;;;;;;;;;;;;;;4.30;82.92;102970.09;105818;1291;74087;-58
2024/01/28 07:47:25;;;;;;;;;;;;;;;4.33;83.20;102966.97;105862;1291;68108;-58
2024/01/28 07:50:11;;;;;;;;;;;;;;;4.37;83.05;102969.34;105825;1292;72100;-59
2024/01/28 07:52:57;;;;;;;;;;;;;;;4.39;82.99;102976.64;105859;1292;59029;-59
2024/01/28 07:55:43;;;;;;;;;;;;;;;4.43;83.10;102976.31;105840;1292;58957;-59
2024/01/28 07:58:29;;;;;;;;;;;;;;;4.45;83.09;102970.79;105863;1291;74375;-59
2024/01/28 08:01:15;;;;;;;;;;;;;;;4.44;83.43;102965.75;105919;1292;68736;-59
2024/01/28 08:04:01;;;;;;;;;;;;;;;4.44;83.33;102963.54;105845;1294;72786;-59
2024/01/28 08:06:47;;;;;;;;;;;;;;;4.45;83.26;102970.92;105858;1294;59240;-59
2024/01/28 08:09:33;;;;;;;;;;;;;;;4.47;83.24;102972.74;105847;1291;59683;-59
2024/01/28 08:12:19;;;;;;;;;;;;;;;4.50;83.34;102974.07;105704;1292;74793;-59
2024/01/28 08:15:05;;;;;;;;;;;;;;;4.52;83.24;102979.65;105887;1292;67543;-59
2024/01/28 08:17:51;;;;;;;;;;;;;;;4.51;83.38;102986.61;105887;1291;71719;-59
2024/01/28 08:20:37;;;;;;;;;;;;;;;4.50;83.39;102984.33;105863;1294;59324;-60
2024/01/28 08:23:23;;;;;;;;;;;;;;;4.50;83.34;102983.14;105869;1291;60431;-59
2024/01/28 08:26:09;;;;;;;;;;;;;;;4.52;83.44;102980.02;105858;1292;73337;-60
2024/01/28 08:28:56;;;;;;;;;;;;;;;4.53;83.42;102974.42;105867;1291;67108;-59
2024/01/28 08:31:42;;;;;;;;;;;;;;;4.50;83.66;102976.66;105871;1292;71978;-59
2024/01/28 08:34:28;;;;;;;;;;;;;;;4.51;83.53;102976.03;105867;1291;59265;-60
2024/01/28 08:37:14;;;;;;;;;;;;;;;4.51;83.90;102977.73;105718;1292;59304;-58
2024/01/28 08:40:00;;;;;;;;;;;;;;;4.53;83.53;102978.65;105902;1291;75096;-58
2024/01/28 08:42:46;;;;;;;;;;;;;;;4.54;83.54;102979.58;105898;1291;67955;-60
2024/01/28 08:45:32;;;;;;;;;;;;;;;4.52;83.79;102980.16;105851;1294;70754;-61
2024/01/28 08:48:18;;;;;;;;;;;;;;;4.53;83.62;102980.36;105818;1294;59296;-60
2024/01/28 08:51:04;;;;;;;;;;;;;;;4.52;83.62;102978.09;105840;1291;59021;-59
2024/01/28 08:53:50;;;;;;;;;;;;;;;4.52;83.75;102981.17;105933;1291;73459;-61
2024/01/28 08:56:36;;;;;;;;;;;;;;;4.51;84.06;102984.91;105724;1292;75682;-58
2024/01/28 08:59:22;;;;;;;;;;;;;;;4.58;83.91;102982.48;105909;1291;71319;-58
2024/01/28 09:02:11;;;;;;;;;;;;;;;4.66;83.84;102982.35;105726;1291;60700;-55
2024/01/28 09:04:56;;;;;;;;;;;;;;;4.71;83.64;102985.61;105883;1291;58954;-56
2024/01/28 09:07:45;;;;;;;;;;;;;;;4.70;83.67;102995.16;105886;1292;73885;-55
2024/01/28 09:10:31;;;;;;;;;;;;;;;4.72;83.67;103001.04;105929;1294;67839;-56
2024/01/28 09:13:17;;;;;;;;;;;;;;;4.75;83.57;103001.86;105872;1291;73336;-57
2024/01/28 09:16:03;;;;;;;;;;;;;;;4.74;83.70;103006.58;105867;1291;59267;-56
2024/01/28 09:18:49;;;;;;;;;;;;;;;4.76;83.67;103009.77;105803;1292;61187;-57
2024/01/28 09:21:35;;;;;;;;;;;;;;;4.77;83.58;103016.12;105882;1292;73269;-57
2024/01/28 09:24:21;;;;;;;;;;;;;;;4.73;83.56;103022.46;105832;1291;67519;-57
2024/01/28 09:27:07;;;;;;;;;;;;;;;4.75;83.59;103025.64;105822;1290;71336;-56
2024/01/28 09:29:53;;;;;;;;;;;;;;;4.75;83.52;103034.52;105684;1292;246914;-56
2024/01/28 09:32:40;;;;;;;;;;;;;;;4.79;83.52;103041.20;105556;1294;189916;-57
2024/01/28 09:35:26;;;;;;;;;;;;;;;4.83;83.48;103041.52;105869;1290;72364;-56
2024/01/28 09:38:12;;;;;;;;;;;;;;;4.85;83.58;103042.84;105874;1292;66860;-55
2024/01/28 09:41:03;;;;;;;;;;;;;;;4.86;83.48;103040.65;105869;1292;72503;-57
2024/01/28 09:43:49;;;;;;;;;;;;;;;4.83;83.46;103045.46;105961;1289;58917;-56
2024/01/28 09:46:36;;;;;;;;;;;;;;;4.83;83.56;103046.00;105894;1292;59485;-57
2024/01/28 09:49:11;;;;;;;;;;;;;;;4.87;83.57;103044.80;101398;1295;5040860;-56
2024/01/28 09:51:57;;;;;;;;;;;;;;;4.86;83.85;103045.62;105510;1295;71981;-57
2024/01/28 09:54:47;;;;;;;;;;;;;;;4.88;83.53;103046.89;105532;1295;59150;-56
2024/01/28 09:57:33;;;;;;;;;;;;;;;4.87;83.71;103043.61;105432;1297;59605;-57
2024/01/28 10:00:20;;;;;;;;;;;;;;;4.88;83.65;103043.45;105518;1294;74310;-57
2024/01/28 10:03:07;;;;;;;;;;;;;;;4.84;83.57;103045.67;105528;1294;68474;-57
2024/01/28 10:05:59;;;;;;;;;;;;;;;4.82;83.61;103049.37;88662;1295;10002210;-55
2024/01/28 10:08:46;;;;;;;;;;;;;;;4.84;83.50;103057.66;105515;1294;59016;-57
2024/01/28 10:11:33;;;;;;;;;;;;;;;4.80;83.50;103056.29;105557;1294;73778;-55
2024/01/28 10:14:19;;;;;;;;;;;;;;;4.83;83.59;103052.28;105562;1294;67320;-56
2024/01/28 10:17:04;;;;;;;;;;;;;;;4.82;83.66;103049.16;105846;1291;71114;-56
2024/01/28 10:19:50;;;;;;;;;;;;;;;4.85;83.65;103045.91;105863;1291;59229;-56
2024/01/28 10:22:36;;;;;;;;;;;;;;;4.83;83.46;103040.49;105809;1291;60332;-55
2024/01/28 10:25:22;;;;;;;;;;;;;;;4.84;83.44;103040.90;105853;1291;73344;-56
2024/01/28 10:28:08;;;;;;;;;;;;;;;4.86;83.41;103037.91;105873;1292;68506;-56
2024/01/28 10:30:54;;;;;;;;;;;;;;;4.85;83.33;103036.36;105797;1292;72436;-57
2024/01/28 10:33:40;;;;;;;;;;;;;;;4.87;83.36;103033.36;105809;1292;58998;-56
2024/01/28 10:36:27;;;;;;;;;;;;;;;4.93;83.23;103038.41;105834;1291;59977;-57
2024/01/28 10:39:14;;;;;;;;;;;;;;;4.94;83.26;103039.99;105835;1291;73305;-56
2024/01/28 10:42:04;;;;;;;;;;;;;;;5.03;83.07;103039.20;105818;1291;68724;-57
2024/01/28 10:44:51;;;;;;;;;;;;;;;5.02;82.53;103038.47;105804;1294;72360;-57
2024/01/28 10:47:40;;;;;;;;;;;;;;;5.00;82.57;103028.31;105812;1291;59025;-56
2024/01/28 10:50:31;;;;;;;;;;;;;;;4.95;82.47;103021.24;105143;1292;59392;-56
2024/01/28 10:53:18;;;;;;;;;;;;;;;4.94;81.95;103018.98;104568;1291;77825;-56
2024/01/28 10:56:05;;;;;;;;;;;;;;;4.97;82.02;103024.45;104521;1292;67645;-55
2024/01/28 10:58:51;;;;;;;;;;;;;;;5.02;81.96;103021.23;104507;1291;72991;-57
2024/01/28 11:01:38;;;;;;;;;;;;;;;5.03;81.66;103018.00;104470;1291;61399;-56
2024/01/28 11:04:24;;;;;;;;;;;;;;;4.94;81.23;103012.65;104439;1292;62674;-55
2024/01/28 11:07:11;;;;;;;;;;;;;;;4.95;81.70;103008.08;104463;1295;73171;-57
2024/01/28 11:10:01;;;;;;;;;;;;;;;5.02;81.62;103007.39;104595;1291;67064;-56
2024/01/28 11:12:47;;;;;;;;;;;;;;;5.02;81.06;103010.80;104535;1291;71282;-57
2024/01/28 11:15:34;;;;;;;;;;;;;;;4.98;81.10;103012.31;104479;1294;61230;-56
2024/01/28 11:18:29;;;;;;;;;;;;;;;4.98;81.48;103010.30;104511;1295;61142;-53
2024/01/28 11:21:19;;;;;;;;;;;;;;;5.01;81.29;103005.48;104570;1290;73266;-55
2024/01/28 11:24:08;;;;;;;;;;;;;;;5.02;81.22;103001.23;104611;1295;70011;-56
2024/01/28 11:26:58;;;;;;;;;;;;;;;5.05;81.29;102998.95;104525;1295;73948;-54
2024/01/28 11:29:45;;;;;;;;;;;;;;;5.05;80.59;102994.16;104364;1297;61223;-56
2024/01/28 11:32:31;;;;;;;;;;;;;;;5.02;80.57;103001.06;105794;1296;59303;-57
2024/01/28 11:35:18;;;;;;;;;;;;;;;4.99;80.71;103010.49;105752;1292;73375;-56
2024/01/28 11:38:18;;;;;;;;;;;;;;;5.00;80.44;103018.23;105641;1298;71341;-57
2024/01/28 11:41:05;;;;;;;;;;;;;;;4.96;80.25;103017.03;105797;1292;71226;-58
2024/01/28 11:44:12;;;;;;;;;;;;;;;4.97;80.65;103007.84;105765;1295;59211;-57
2024/01/28 11:46:58;;;;;;;;;;;;;;;5.05;80.78;103005.44;104632;1295;61311;-53
2024/01/28 11:49:44;;;;;;;;;;;;;;;5.07;80.54;103001.27;104447;1296;77171;-55
2024/01/28 11:52:30;;;;;;;;;;;;;;;5.06;80.57;102997.30;104547;1296;67319;-55
2024/01/28 11:55:17;;;;;;;;;;;;;;;5.04;80.53;102997.23;104600;1294;72079;-55
2024/01/28 11:58:04;;;;;;;;;;;;;;;5.00;80.55;102982.15;105823;1294;59027;-55
2024/01/28 12:00:50;;;;;;;;;;;;;;;5.00;80.29;102978.23;105845;1292;59404;-55
2024/01/28 12:03:36;;;;;;;;;;;;;;;4.98;80.25;102970.98;105791;1292;73412;-54
2024/01/28 12:06:23;;;;;;;;;;;;;;;4.99;80.45;102959.02;105787;1293;68219;-55
2024/01/28 12:09:08;;;;;;;;;;;;;;;5.04;80.39;102959.23;105762;1293;71134;-56
2024/01/28 12:11:54;;;;;;;;;;;;;;;5.06;80.11;102958.48;105702;1294;59024;-54
2024/01/28 12:14:41;;;;;;;;;;;;;;;5.02;79.89;102954.56;105717;1295;60326;-54
2024/01/28 12:17:27;;;;;;;;;;;;;;;5.00;79.78;102949.35;105712;1292;73406;-56
2024/01/28 12:20:20;;;;;;;;;;;;;;;4.99;79.90;102942.48;105688;1293;67482;-56
2024/01/28 12:23:06;;;;;;;;;;;;;;;5.02;80.11;102940.20;105625;1295;72560;-55
2024/01/28 12:25:52;;;;;;;;;;;;;;;5.09;80.18;102939.14;105704;1295;59382;-54
2024/01/28 12:28:38;;;;;;;;;;;;;;;5.11;80.11;102931.20;105767;1294;59197;-55
2024/01/28 12:31:24;;;;;;;;;;;;;;;5.15;80.07;102927.61;105792;1291;72774;-56
2024/01/28 12:34:14;;;;;;;;;;;;;;;5.21;80.06;102925.80;105760;1292;69201;-54
2024/01/28 12:37:00;;;;;;;;;;;;;;;5.18;79.67;102933.38;105766;1292;72034;-55
2024/01/28 12:39:46;;;;;;;;;;;;;;;5.17;79.20;102936.43;105708;1291;59502;-54
2024/01/28 12:42:34;;;;;;;;;;;;;;;5.18;79.54;102941.75;105457;1296;224427;-55
2024/01/28 12:45:23;;;;;;;;;;;;;;;5.22;79.93;102946.02;105573;1297;74007;-54
2024/01/28 12:48:09;;;;;;;;;;;;;;;5.21;79.31;102953.17;105608;1293;68340;-55
2024/01/28 12:50:55;;;;;;;;;;;;;;;5.16;79.18;102963.71;105677;1294;72821;-55
2024/01/28 13:09:30;;;;;;;10.80;4.30;;;;;;;5.07;79.38;102995.95;104391;1288;599792;-55
2024/01/28 13:12:16;;;;;;;11.20;5.40;;;;;;;5.04;79.16;102990.17;104451;1292;59150;-53
2024/01/28 13:15:07;;;;;;;16.30;5.50;;;;;;;4.99;78.95;102985.55;104515;1292;59251;-57
2024/01/28 13:17:53;;;;;;;11.00;5.50;;;;;;;4.98;78.91;102986.02;104530;1296;71776;-55
2024/01/28 13:20:39;;;;;;;;;;;;;;;4.99;79.17;102984.85;104533;1292;71192;-55
2024/01/28 13:23:25;;;;;;;;;;;;;;;5.01;79.18;102977.91;104553;1288;275656;-57
2024/01/28 13:26:12;;;;;;;;;;;;;;;5.02;79.11;102968.77;104783;1290;59382;-54
2024/01/28 13:28:37;;;;;;;11.20;5.20;;;;;;;5.04;79.05;102962.66;106094;1289;57411;-57
2024/01/28 13:31:22;;;;;;;9.70;5.40;;;;;;;5.03;79.11;102951.02;106090;1288;72951;-57
2024/01/28 13:34:08;;;;;;;20.50;5.50;;;;;;;5.08;79.41;102951.60;105998;1294;67535;-58
2024/01/28 13:36:54;;;;;;;11.80;4.90;;;;;;;5.13;79.40;102952.83;105960;1289;72605;-55
2024/01/28 13:39:40;;;;;;;;;;;;;;;5.16;79.29;102949.55;106108;1290;57332;-54
2024/01/28 13:42:26;;;;;;;15.00;5.00;;;;;;;5.19;79.27;102945.08;105966;1293;58668;-54
2024/01/28 13:45:12;;;;;;;12.70;5.60;;;;;;;5.22;79.09;102944.45;105964;1288;71600;-54
2024/01/28 13:47:58;;;;;;;11.20;5.20;;;;;;;5.18;78.92;102946.89;104864;1289;68111;-53
2024/01/28 13:50:44;;;;;;;14.20;4.90;;;;;;;5.15;79.03;102949.14;104578;1292;71276;-51
2024/01/28 13:53:31;;;;;;;18.40;5.50;;;;;;;5.13;78.61;102954.89;104805;1289;59580;-55
2024/01/28 13:56:17;;;;;;;13.70;5.10;;;;;;;5.13;78.85;102962.73;104582;1294;59941;-55
2024/01/28 13:59:03;;;;;;;13.60;5.10;;;;;;;5.12;78.88;102960.63;104567;1291;72299;-53
2024/01/28 14:01:50;;;;;;;11.10;5.30;;;;;;;5.11;78.97;102965.20;104551;1294;69250;-55
2024/01/28 14:04:37;;;;;;;10.20;5.20;;;;;;;5.10;78.87;102966.05;104784;1290;71303;-53
2024/01/28 14:07:23;;;;;;;11.60;4.90;;;;;;;5.09;78.89;102961.70;104745;1289;60255;-53
2024/01/28 14:10:10;;;;;;;14.00;5.00;;;;;;;5.09;79.01;102957.08;104769;1289;59662;-53
2024/01/28 14:12:56;;;;;;;16.10;5.90;;;;;;;5.08;79.06;102954.81;104814;1289;72745;-56
2024/01/28 14:15:42;;;;;;;17.30;5.60;;;;;;;5.08;79.03;102952.25;104754;1294;68127;-55
2024/01/28 14:18:29;;;;;;;14.60;4.80;;;;;;;5.10;79.11;102951.64;104742;1290;76433;-55
2024/01/28 14:21:16;;;;;;;14.20;5.30;;;;;;;5.11;79.26;102944.19;104779;1289;59685;-55